Time;durP1;ratioP1;P1;durP2;ratioP2;P2;SDS_P1;SDS_P2;PMS_P1;PMS_P2;Temp;Humidity;BMP_temperature;BMP_pressure;BME280_temperature;BME280_humidity;BME280_pressure;Samples;Min_cycle;Max_cycle;Signal;HPM_P1;HPM_P2
2021/12/24 00:00:47;;;;;;;4.85;2.22;;;24.10;49.90;;;;;;4989189;28;20311;-43
2021/12/24 00:03:18;;;;;;;4.80;2.20;;;24.10;49.90;;;;;;4989238;28;20206;-40
2021/12/24 00:05:48;;;;;;;4.72;2.33;;;24.10;49.80;;;;;;4981588;28;20749;-41
2021/12/24 00:08:19;;;;;;;6.03;2.70;;;24.10;49.80;;;;;;4986029;28;20299;-40
2021/12/24 00:10:58;;;;;;;5.22;2.40;;;24.20;49.80;;;;;;4994016;28;20713;-40
2021/12/24 00:13:34;;;;;;;5.40;2.85;;;24.20;49.80;;;;;;4988056;28;20197;-41
2021/12/24 00:16:10;;;;;;;7.85;3.03;;;24.30;49.80;;;;;;4975887;28;20254;-42
2021/12/24 00:18:47;;;;;;;5.38;2.40;;;24.30;49.70;;;;;;4973779;28;20280;-40
2021/12/24 00:35:22;;;;;;;7.03;3.10;;;24.50;49.70;;;;;;4989335;28;20216;-40
2021/12/24 00:37:52;;;;;;;5.28;3.13;;;24.50;49.60;;;;;;4988978;28;20296;-40
2021/12/24 00:40:23;;;;;;;6.00;3.10;;;24.50;49.70;;;;;;4985546;28;20221;-44
2021/12/24 00:42:55;;;;;;;6.47;3.22;;;24.50;49.50;;;;;;4978741;28;20297;-41
2021/12/24 00:45:29;;;;;;;6.75;3.03;;;24.60;49.60;;;;;;4983164;28;20225;-42
2021/12/24 00:48:00;;;;;;;5.72;2.75;;;24.60;49.50;;;;;;4988328;28;20280;-41
2021/12/24 00:50:35;;;;;;;5.80;3.00;;;24.70;49.50;;;;;;4988384;28;20325;-47
2021/12/24 00:55:02;;;;;;;5.88;3.25;;;24.70;49.40;;;;;;4988225;28;20192;-44
2021/12/24 00:55:55;;;;;;;7.03;3.45;;;24.70;49.30;;;;;;4987836;28;20202;-44
2021/12/24 00:58:25;;;;;;;5.15;2.60;;;24.80;49.30;;;;;;4988866;28;20236;-42
2021/12/24 01:00:58;;;;;;;6.07;2.90;;;24.80;49.20;;;;;;4971386;28;20341;-46
2021/12/24 01:03:28;;;;;;;6.93;3.25;;;24.90;49.20;;;;;;4987398;28;20292;-40
2021/12/24 01:05:59;;;;;;;6.30;2.92;;;24.90;49.10;;;;;;4988146;28;20292;-40
2021/12/24 01:08:29;;;;;;;5.82;3.40;;;24.90;49.10;;;;;;4987362;28;20312;-40
2021/12/24 01:11:01;;;;;;;7.30;3.38;;;24.90;49.00;;;;;;4987943;28;20237;-43
2021/12/24 01:13:32;;;;;;;5.53;2.97;;;25.00;49.00;;;;;;4989836;28;20279;-45
2021/12/24 01:16:13;;;;;;;7.93;3.03;;;25.00;48.90;;;;;;4977035;28;20240;-40
2021/12/24 01:18:52;;;;;;;7.10;3.08;;;25.00;49.70;;;;;;4989094;28;20596;-40
2021/12/24 01:21:36;;;;;;;7.35;3.40;;;25.00;49.10;;;;;;5000779;28;20549;-40
2021/12/24 01:24:11;;;;;;;7.07;3.05;;;25.10;49.20;;;;;;4987726;28;20202;-40
2021/12/24 01:26:49;;;;;;;6.03;3.05;;;25.10;49.10;;;;;;4987917;28;20203;-40
2021/12/24 01:37:58;;;;;;;7.50;3.70;;;25.30;48.80;;;;;;4988702;28;20251;-39
2021/12/24 01:40:40;;;;;;;22.30;5.68;;;25.30;48.60;;;;;;4988325;28;20217;-42
2021/12/24 01:43:10;;;;;;;11.27;4.65;;;25.30;48.60;;;;;;4989088;28;20193;-43
2021/12/24 01:45:41;;;;;;;14.70;4.00;;;25.40;48.40;;;;;;4987896;28;20197;-44
2021/12/24 01:48:13;;;;;;;13.25;4.25;;;25.40;48.20;;;;;;4987548;28;20375;-43
2021/12/24 01:50:46;;;;;;;8.05;3.17;;;25.50;47.60;;;;;;4977444;28;20736;-43
2021/12/24 01:53:17;;;;;;;5.85;1.98;;;25.50;47.30;;;;;;4981872;28;20201;-43
2021/12/24 01:55:50;;;;;;;4.95;1.60;;;25.40;47.20;;;;;;4991132;28;20235;-44
2021/12/24 01:58:23;;;;;;;3.72;1.17;;;25.40;47.30;;;;;;4999463;28;20942;-43
2021/12/24 02:00:55;;;;;;;5.13;1.50;;;25.50;47.30;;;;;;4989170;28;20227;-46
2021/12/24 02:03:28;;;;;;;4.30;1.50;;;25.40;46.90;;;;;;4972248;28;20313;-63
2021/12/24 02:05:58;;;;;;;10.48;2.10;;;25.40;46.90;;;;;;4987959;28;20280;-45
2021/12/24 02:08:29;;;;;;;9.65;1.85;;;25.40;47.10;;;;;;4973377;28;20337;-58
2021/12/24 02:11:00;;;;;;;12.75;1.75;;;25.40;47.40;;;;;;4986051;28;20289;-47
2021/12/24 02:13:30;;;;;;;7.88;1.35;;;25.50;47.60;;;;;;4987453;28;20244;-48
2021/12/24 02:16:14;;;;;;;8.07;1.50;;;25.50;47.60;;;;;;4991924;28;20237;-45
2021/12/24 02:29:58;;;;;;;6.07;1.42;;;25.60;47.70;;;;;;5002169;28;20243;-41
2021/12/24 02:32:28;;;;;;;7.45;1.52;;;25.70;47.60;;;;;;5002640;28;20285;-39
2021/12/24 02:34:59;;;;;;;6.07;1.27;;;25.70;47.60;;;;;;5006687;28;20523;-42
2021/12/24 02:37:31;;;;;;;3.03;1.20;;;25.80;47.60;;;;;;5010026;28;20288;-39
2021/12/24 02:40:01;;;;;;;4.10;1.10;;;25.80;47.50;;;;;;5008893;28;20315;-39
2021/12/24 02:42:34;;;;;;;5.38;1.60;;;25.80;47.40;;;;;;5007800;28;20303;-39
2021/12/24 02:45:05;;;;;;;5.28;1.38;;;25.80;47.30;;;;;;5007559;28;20200;-38
2021/12/24 02:47:53;;;;;;;3.63;1.05;;;25.80;47.20;;;;;;5006486;28;20241;-45
2021/12/24 02:55:59;;;;;;;4.53;1.55;;;25.90;47.20;;;;;;5006841;28;20675;-46
2021/12/24 02:58:29;;;;;;;6.18;1.42;;;26.00;47.20;;;;;;5005969;28;20307;-48
2021/12/24 03:01:00;;;;;;;2.00;1.02;;;26.00;47.20;;;;;;5007813;28;20256;-40
2021/12/24 03:03:30;;;;;;;4.55;1.40;;;26.00;47.30;;;;;;5007542;28;20284;-51
2021/12/24 03:06:01;;;;;;;3.97;1.20;;;26.00;47.30;;;;;;5008960;28;20284;-52
2021/12/24 03:08:33;;;;;;;6.07;1.23;;;26.00;47.30;;;;;;5006814;28;20308;-46
2021/12/24 03:11:04;;;;;;;5.03;1.13;;;26.00;47.30;;;;;;5008337;28;20280;-43
2021/12/24 03:13:36;;;;;;;3.67;1.20;;;26.10;47.30;;;;;;5006774;28;20239;-45
2021/12/24 03:16:06;;;;;;;6.63;1.58;;;26.10;47.20;;;;;;5006011;28;20240;-54
2021/12/24 03:18:39;;;;;;;5.15;1.70;;;26.10;47.10;;;;;;5006035;28;20290;-46
2021/12/24 03:21:14;;;;;;;4.00;1.48;;;26.10;47.00;;;;;;5006591;28;20754;-49
2021/12/24 03:24:33;;;;;;;6.63;1.20;;;26.10;47.00;;;;;;5005618;28;20196;-51
2021/12/24 03:26:39;;;;;;;7.97;1.60;;;26.10;46.80;;;;;;5004980;28;20201;-52
2021/12/24 03:29:12;;;;;;;4.75;1.10;;;26.10;46.70;;;;;;5006776;28;20646;-47
2021/12/24 03:31:43;;;;;;;2.58;1.10;;;26.10;46.60;;;;;;5001785;28;20279;-52
2021/12/24 03:34:15;;;;;;;4.13;1.20;;;26.10;46.60;;;;;;5007690;28;20288;-56
2021/12/24 03:36:45;;;;;;;6.05;1.20;;;26.10;46.50;;;;;;5008821;28;20962;-55
2021/12/24 03:39:19;;;;;;;4.70;1.60;;;26.10;46.60;;;;;;5007790;28;20295;-56
2021/12/24 03:41:49;;;;;;;5.72;1.50;;;26.10;46.70;;;;;;5005839;28;20713;-57
2021/12/24 03:44:20;;;;;;;1.90;0.95;;;26.10;46.80;;;;;;5005462;28;20287;-57
2021/12/24 03:46:58;;;;;;;3.67;1.33;;;26.10;46.90;;;;;;5003556;28;20204;-57
2021/12/24 03:49:35;;;;;;;3.58;1.20;;;26.20;46.90;;;;;;5006645;28;20580;-57
2021/12/24 03:52:18;;;;;;;3.85;1.20;;;26.20;46.90;;;;;;5006339;28;20205;-54
2021/12/24 03:54:57;;;;;;;3.25;1.20;;;26.20;46.90;;;;;;4987988;28;20196;-55
2021/12/24 03:57:28;;;;;;;2.25;1.20;;;26.20;46.80;;;;;;5007041;28;20198;-57
2021/12/24 04:00:00;;;;;;;4.07;1.20;;;26.20;46.70;;;;;;5007556;28;20316;-49
2021/12/24 04:02:31;;;;;;;2.97;1.10;;;26.20;46.70;;;;;;5007824;28;20285;-40
2021/12/24 04:05:01;;;;;;;1.98;1.08;;;26.20;46.70;;;;;;5007089;28;20649;-53
2021/12/24 04:07:32;;;;;;;1.83;0.90;;;26.30;46.70;;;;;;5007528;28;20308;-54
2021/12/24 04:10:10;;;;;;;1.67;0.98;;;26.30;46.70;;;;;;5005120;28;20309;-56
2021/12/24 04:12:41;;;;;;;1.80;1.08;;;26.20;46.60;;;;;;5007358;28;20200;-57
2021/12/24 04:15:12;;;;;;;3.47;1.00;;;26.30;46.60;;;;;;5005178;28;20276;-54
2021/12/24 04:17:44;;;;;;;5.72;1.40;;;26.30;46.60;;;;;;5004406;28;20239;-56
2021/12/24 04:25:49;;;;;;;1.83;0.90;;;26.30;46.40;;;;;;5005735;28;20231;-44
2021/12/24 04:28:20;;;;;;;3.67;1.20;;;26.20;46.30;;;;;;5005323;28;20889;-57
2021/12/24 04:30:52;;;;;;;3.63;1.15;;;26.30;46.40;;;;;;5007659;28;20193;-47
2021/12/24 04:33:28;;;;;;;2.22;1.25;;;26.30;46.40;;;;;;5007893;28;20263;-52
2021/12/24 04:36:11;;;;;;;2.22;1.13;;;26.30;46.40;;;;;;5006605;28;20196;-53
2021/12/24 04:39:03;;;;;;;2.28;0.90;;;26.20;46.40;;;;;;5007170;28;20623;-57
2021/12/24 04:53:09;;;;;;;2.17;1.00;;;26.30;46.40;;;;;;5002610;28;20691;-55
2021/12/24 05:01:25;;;;;;;2.22;1.08;;;26.30;46.40;;;;;;5004446;28;20229;-54
2021/12/24 05:03:57;;;;;;;1.90;0.70;;;26.20;46.30;;;;;;5004403;28;20201;-53
2021/12/24 05:06:33;;;;;;;1.35;0.90;;;26.20;46.30;;;;;;5004955;28;20568;-48
2021/12/24 05:09:09;;;;;;;2.85;0.88;;;26.20;46.30;;;;;;5004520;28;20256;-57
2021/12/24 05:11:39;;;;;;;2.42;1.00;;;26.30;46.40;;;;;;5004847;28;20200;-53
2021/12/24 05:14:15;;;;;;;1.85;1.10;;;26.20;46.30;;;;;;5004097;28;20196;-56
2021/12/24 05:16:48;;;;;;;4.00;1.10;;;26.20;46.10;;;;;;5004839;28;20205;-56
2021/12/24 05:22:06;;;;;;;1.65;0.90;;;26.20;46.10;;;;;;5005689;28;20874;-56
2021/12/24 05:24:36;;;;;;;4.45;1.15;;;26.20;45.90;;;;;;5006350;28;20237;-51
2021/12/24 05:27:07;;;;;;;2.15;1.00;;;26.10;45.50;;;;;;5006452;28;20240;-49
2021/12/24 05:29:40;;;;;;;4.43;1.10;;;26.10;45.80;;;;;;4994741;28;20320;-38
2021/12/24 05:32:11;;;;;;;2.35;1.08;;;26.10;45.80;;;;;;5005308;28;20295;-44
2021/12/24 05:34:41;;;;;;;3.80;1.27;;;26.10;46.00;;;;;;5006033;28;20288;-42
2021/12/24 05:37:11;;;;;;;3.78;1.33;;;26.10;46.00;;;;;;5003716;28;20303;-39
2021/12/24 05:39:42;;;;;;;3.13;1.20;;;26.10;46.10;;;;;;5003440;28;20316;-48
2021/12/24 05:42:12;;;;;;;3.05;1.20;;;26.10;46.10;;;;;;5005278;28;20223;-47
2021/12/24 05:44:45;;;;;;;1.90;0.90;;;26.10;46.10;;;;;;5005854;28;20288;-47
2021/12/24 05:47:15;;;;;;;3.63;1.05;;;26.00;46.00;;;;;;5004351;28;20233;-52
2021/12/24 05:49:46;;;;;;;2.75;1.10;;;26.00;45.90;;;;;;5004815;28;20309;-47
2021/12/24 05:52:16;;;;;;;4.00;1.10;;;26.00;45.90;;;;;;5004253;28;20288;-51
2021/12/24 05:54:46;;;;;;;3.88;1.52;;;26.00;45.90;;;;;;5003960;28;20715;-55
2021/12/24 05:57:17;;;;;;;2.65;1.10;;;26.00;45.90;;;;;;5003804;28;20296;-48
2021/12/24 05:59:49;;;;;;;2.50;1.05;;;26.00;45.80;;;;;;4993089;28;20224;-44
2021/12/24 06:02:20;;;;;;;2.45;1.15;;;25.90;45.80;;;;;;5004457;28;20216;-50
2021/12/24 06:04:50;;;;;;;3.03;1.33;;;26.00;45.90;;;;;;5003917;28;20288;-47
2021/12/24 06:07:21;;;;;;;1.92;1.08;;;25.90;45.80;;;;;;5005381;28;20207;-54
2021/12/24 06:09:51;;;;;;;3.80;1.10;;;25.90;45.90;;;;;;5007548;28;20205;-47
2021/12/24 06:12:22;;;;;;;3.03;1.10;;;25.90;46.00;;;;;;5010268;28;20211;-54
2021/12/24 06:15:01;;;;;;;2.40;0.98;;;25.80;45.90;;;;;;5005085;28;20275;-50
2021/12/24 06:17:31;;;;;;;2.47;1.17;;;25.80;45.90;;;;;;5007500;28;20649;-57
2021/12/24 06:20:02;;;;;;;2.47;1.20;;;25.80;46.00;;;;;;5008407;28;20303;-57
2021/12/24 06:22:32;;;;;;;3.15;1.15;;;25.80;45.90;;;;;;5007635;28;20263;-58
2021/12/24 06:25:04;;;;;;;1.77;0.82;;;25.80;46.00;;;;;;4991034;28;20679;-55
2021/12/24 06:27:34;;;;;;;2.03;0.82;;;25.80;45.90;;;;;;5008301;28;20283;-53
2021/12/24 06:30:07;;;;;;;2.40;0.90;;;25.80;45.90;;;;;;5007275;28;20300;-54
2021/12/24 06:32:38;;;;;;;3.95;1.00;;;25.80;46.00;;;;;;5000983;28;20208;-57
2021/12/24 06:35:10;;;;;;;2.15;0.98;;;25.80;45.90;;;;;;5009890;28;20280;-52
2021/12/24 06:37:41;;;;;;;2.15;1.00;;;25.80;45.90;;;;;;5009122;28;20208;-52
2021/12/24 06:40:12;;;;;;;1.88;1.10;;;25.70;45.80;;;;;;5007824;28;20287;-53
2021/12/24 06:42:43;;;;;;;1.88;1.05;;;25.70;45.80;;;;;;5007860;28;20572;-54
2021/12/24 06:45:19;;;;;;;3.05;0.90;;;25.70;45.80;;;;;;5007765;28;20280;-58
2021/12/24 06:47:49;;;;;;;3.13;1.02;;;25.70;45.90;;;;;;5007047;28;20208;-54
2021/12/24 06:50:20;;;;;;;1.83;0.90;;;25.60;45.80;;;;;;5007566;28;20296;-57
2021/12/24 06:52:51;;;;;;;2.20;1.00;;;25.60;45.80;;;;;;5008291;28;20381;-51
2021/12/24 06:55:22;;;;;;;3.30;1.20;;;25.60;45.80;;;;;;5007775;28;20283;-57
2021/12/24 06:57:52;;;;;;;1.58;0.95;;;25.60;45.90;;;;;;5006614;28;20201;-46
2021/12/24 07:00:26;;;;;;;2.20;1.00;;;25.50;45.90;;;;;;5007453;28;20279;-56
2021/12/24 07:02:57;;;;;;;3.10;1.20;;;25.50;45.90;;;;;;4998282;28;20292;-53
2021/12/24 07:05:27;;;;;;;1.48;0.80;;;25.50;45.90;;;;;;5009317;28;20291;-55
2021/12/24 07:07:58;;;;;;;1.95;1.00;;;25.50;45.90;;;;;;5006075;28;20241;-53
2021/12/24 07:10:28;;;;;;;1.60;1.00;;;25.50;46.50;;;;;;5006167;28;20659;-56
2021/12/24 07:12:59;;;;;;;2.45;0.90;;;25.50;45.90;;;;;;5008776;28;20296;-54
2021/12/24 07:15:31;;;;;;;1.90;1.00;;;25.50;46.00;;;;;;5004480;28;20279;-53
2021/12/24 07:18:02;;;;;;;1.85;0.95;;;25.50;46.00;;;;;;5008191;28;20223;-57
2021/12/24 07:20:32;;;;;;;2.35;0.90;;;25.40;46.60;;;;;;5008835;28;20232;-53
2021/12/24 07:23:03;;;;;;;2.47;0.80;;;25.40;45.90;;;;;;5009333;28;21043;-54
2021/12/24 07:25:35;;;;;;;2.17;0.82;;;25.40;45.90;;;;;;5005722;28;20247;-58
2021/12/24 07:28:06;;;;;;;2.08;0.98;;;25.40;45.90;;;;;;5005900;28;20676;-54
2021/12/24 07:30:38;;;;;;;1.50;1.00;;;25.40;45.90;;;;;;5007176;28;20203;-52
2021/12/24 07:33:08;;;;;;;1.55;0.98;;;25.30;45.80;;;;;;4999257;28;20347;-56
2021/12/24 07:35:39;;;;;;;1.70;0.85;;;25.30;45.80;;;;;;5007723;28;20288;-55
2021/12/24 07:38:09;;;;;;;2.60;1.00;;;25.30;45.80;;;;;;5007565;28;20251;-55
2021/12/24 07:40:40;;;;;;;5.07;1.58;;;25.30;45.90;;;;;;5008548;28;20200;-55
2021/12/24 07:43:10;;;;;;;2.55;1.00;;;25.30;46.00;;;;;;5007677;28;20732;-44
2021/12/24 07:45:44;;;;;;;4.78;1.20;;;25.20;45.90;;;;;;5005786;28;20292;-45
2021/12/24 07:48:15;;;;;;;2.70;1.15;;;25.20;46.00;;;;;;5005897;28;20217;-57
2021/12/24 07:53:32;;;;;;;1.88;0.85;;;25.10;46.00;;;;;;4983671;28;20300;-46
2021/12/24 07:56:02;;;;;;;2.97;1.00;;;25.10;46.10;;;;;;5006185;28;20683;-38
2021/12/24 07:58:33;;;;;;;3.05;1.17;;;25.10;46.10;;;;;;5004076;28;20299;-43
2021/12/24 08:01:05;;;;;;;3.60;1.25;;;25.10;46.20;;;;;;5005713;28;20309;-38
2021/12/24 08:03:36;;;;;;;1.75;0.90;;;25.10;46.20;;;;;;5005374;28;20637;-39
2021/12/24 08:06:06;;;;;;;2.15;0.93;;;25.00;46.10;;;;;;5008805;28;20634;-42
2021/12/24 08:08:37;;;;;;;2.83;1.27;;;25.00;46.20;;;;;;5005995;28;20307;-47
2021/12/24 08:11:07;;;;;;;2.22;0.95;;;25.00;46.10;;;;;;5006073;28;20211;-38
2021/12/24 08:13:38;;;;;;;1.98;1.00;;;25.00;46.10;;;;;;5005687;28;20678;-41
2021/12/24 08:16:10;;;;;;;2.00;1.20;;;25.00;46.20;;;;;;5004869;28;20288;-52
2021/12/24 08:18:43;;;;;;;2.78;1.08;;;24.90;46.20;;;;;;5004120;28;20311;-41
2021/12/24 08:21:13;;;;;;;1.95;1.10;;;24.90;46.20;;;;;;5004549;28;20220;-45
2021/12/24 08:23:45;;;;;;;2.35;1.08;;;24.90;46.20;;;;;;5004946;28;20284;-41
2021/12/24 08:26:16;;;;;;;1.58;0.88;;;24.90;46.20;;;;;;5004681;28;20244;-38
2021/12/24 08:28:47;;;;;;;2.10;1.00;;;24.80;46.10;;;;;;5006187;28;20250;-41
2021/12/24 08:31:20;;;;;;;1.90;0.88;;;24.90;46.20;;;;;;5006242;28;20208;-46
2021/12/24 08:33:50;;;;;;;1.80;0.95;;;24.80;46.30;;;;;;5006417;28;20231;-48
2021/12/24 08:36:21;;;;;;;2.10;1.13;;;24.80;46.30;;;;;;5004559;28;20232;-39
2021/12/24 08:38:51;;;;;;;1.52;1.00;;;24.80;46.30;;;;;;5004195;28;20220;-44
2021/12/24 08:41:22;;;;;;;2.08;0.88;;;24.70;46.30;;;;;;5004618;28;20312;-39
2021/12/24 08:43:52;;;;;;;2.10;1.15;;;24.70;46.30;;;;;;5002800;28;20280;-39
2021/12/24 08:46:24;;;;;;;1.67;0.95;;;24.70;46.30;;;;;;5005139;28;20295;-38
2021/12/24 08:48:55;;;;;;;1.58;0.98;;;24.70;46.40;;;;;;5007028;28;20255;-44
2021/12/24 08:51:26;;;;;;;1.55;0.93;;;24.70;46.40;;;;;;5006384;28;20320;-50
2021/12/24 08:53:56;;;;;;;2.45;1.08;;;24.70;46.40;;;;;;5005821;28;20284;-42
2021/12/24 08:56:27;;;;;;;2.30;0.90;;;24.60;46.30;;;;;;5003514;28;20292;-38
2021/12/24 08:58:58;;;;;;;2.35;1.17;;;24.60;46.40;;;;;;5002896;28;20646;-39
2021/12/24 09:01:30;;;;;;;1.67;1.00;;;24.60;46.40;;;;;;5002518;28;20312;-53
2021/12/24 09:04:00;;;;;;;1.95;1.15;;;24.60;46.40;;;;;;5004914;28;20228;-49
2021/12/24 09:06:31;;;;;;;2.13;1.20;;;24.50;46.30;;;;;;5005354;28;20279;-49
2021/12/24 09:09:02;;;;;;;1.55;0.93;;;24.50;46.40;;;;;;5004819;28;20304;-52
2021/12/24 09:11:32;;;;;;;1.88;1.25;;;24.50;46.30;;;;;;5006406;28;20645;-45
2021/12/24 09:14:03;;;;;;;1.67;1.10;;;24.50;46.40;;;;;;5007060;28;20272;-39
2021/12/24 09:16:36;;;;;;;1.08;0.77;;;24.50;46.40;;;;;;5004264;28;20284;-49
2021/12/24 09:19:11;;;;;;;1.55;1.10;;;24.40;46.40;;;;;;5004703;28;20221;-47
2021/12/24 09:21:42;;;;;;;3.17;0.95;;;24.40;46.40;;;;;;5004763;28;20601;-43
2021/12/24 09:24:12;;;;;;;1.83;1.05;;;24.40;46.40;;;;;;5004678;28;20280;-48
2021/12/24 09:26:43;;;;;;;1.73;0.93;;;24.40;46.50;;;;;;5003386;28;20638;-39
2021/12/24 09:29:13;;;;;;;1.48;1.00;;;24.40;46.50;;;;;;5001733;28;20271;-39
2021/12/24 09:31:46;;;;;;;1.83;0.88;;;24.40;46.60;;;;;;5004238;28;20207;-42
2021/12/24 09:34:16;;;;;;;1.75;1.00;;;24.30;46.50;;;;;;5006014;28;20280;-40
2021/12/24 09:36:47;;;;;;;2.15;0.93;;;24.30;46.50;;;;;;5004668;28;20274;-38
2021/12/24 09:39:17;;;;;;;1.67;0.90;;;24.30;46.50;;;;;;5003503;28;20213;-38
2021/12/24 09:41:48;;;;;;;2.45;1.17;;;24.30;46.50;;;;;;5004170;28;20315;-42
2021/12/24 09:44:18;;;;;;;1.65;1.00;;;24.30;46.60;;;;;;5008239;28;20200;-39
2021/12/24 09:46:51;;;;;;;1.13;0.80;;;24.20;46.50;;;;;;5011769;28;20287;-38
2021/12/24 09:49:22;;;;;;;3.55;1.10;;;24.20;46.50;;;;;;5011498;28;20226;-41
2021/12/24 09:51:54;;;;;;;1.40;0.90;;;24.20;46.50;;;;;;5010060;28;20212;-44
2021/12/24 09:54:26;;;;;;;0.98;0.73;;;24.20;46.60;;;;;;5008292;28;20720;-42
2021/12/24 09:56:59;;;;;;;2.05;0.95;;;24.20;46.60;;;;;;5010901;28;20292;-43
2021/12/24 09:59:30;;;;;;;1.90;0.90;;;24.10;46.50;;;;;;5011761;28;20302;-39
2021/12/24 10:02:03;;;;;;;2.45;1.00;;;24.10;46.60;;;;;;5000319;28;20802;-39
2021/12/24 10:04:35;;;;;;;1.50;0.90;;;24.10;46.60;;;;;;5007809;28;20284;-38
2021/12/24 10:07:07;;;;;;;1.55;0.70;;;24.10;46.60;;;;;;5011988;28;20296;-42
2021/12/24 10:09:40;;;;;;;1.45;0.90;;;24.00;46.60;;;;;;5010697;28;20224;-38
2021/12/24 10:12:14;;;;;;;1.88;1.02;;;24.00;46.70;;;;;;5152831;22;20206;-37
2021/12/24 10:14:49;;;;;;;1.42;0.80;;;24.00;46.70;;;;;;5009684;28;20212;-37
2021/12/24 10:17:22;;;;;;;1.10;0.80;;;24.00;46.70;;;;;;5009716;28;20303;-37
2021/12/24 10:19:56;;;;;;;2.80;1.02;;;24.00;46.70;;;;;;5011816;28;20305;-44
2021/12/24 10:22:27;;;;;;;1.63;0.80;;;24.00;46.80;;;;;;5010253;28;20734;-37
2021/12/24 10:25:02;;;;;;;0.85;0.60;;;23.90;46.70;;;;;;5012921;28;20276;-39
2021/12/24 10:27:34;;;;;;;1.55;0.73;;;23.90;46.80;;;;;;5011161;28;20332;-37
2021/12/24 10:30:16;;;;;;;1.30;0.80;;;23.90;46.80;;;;;;5010790;28;20303;-37
2021/12/24 10:32:49;;;;;;;1.50;0.88;;;23.90;46.80;;;;;;5010695;28;20287;-37
2021/12/24 10:35:24;;;;;;;2.67;1.10;;;23.90;46.80;;;;;;5008155;28;20204;-37
2021/12/24 10:38:12;;;;;;;1.50;0.88;;;23.80;46.80;;;;;;5008238;28;20299;-38
2021/12/24 10:40:53;;;;;;;1.10;0.80;;;23.80;47.40;;;;;;4981039;28;20288;-38
2021/12/24 10:43:28;;;;;;;1.45;0.63;;;23.80;46.80;;;;;;4979869;28;20625;-37
2021/12/24 10:46:14;;;;;;;1.48;0.95;;;23.80;46.80;;;;;;4976898;28;20507;-38
2021/12/24 10:49:02;;;;;;;1.50;1.00;;;23.80;46.90;;;;;;4977363;28;20383;-37
2021/12/24 10:54:35;;;;;;;0.85;0.70;;;23.70;46.90;;;;;;5105900;27;20555;-40
2021/12/24 10:57:23;;;;;;;1.25;0.98;;;23.70;46.90;;;;;;5084433;28;20735;-38
2021/12/24 10:59:58;;;;;;;2.33;1.27;;;23.70;47.00;;;;;;5073897;28;20222;-38
2021/12/24 11:02:32;;;;;;;1.40;0.70;;;23.70;46.90;;;;;;5078133;28;20288;-38
2021/12/24 11:05:03;;;;;;;2.13;1.10;;;23.60;46.90;;;;;;5084538;28;20244;-37
2021/12/24 11:07:38;;;;;;;1.35;0.82;;;23.60;46.90;;;;;;5084238;28;20276;-38
2021/12/24 11:10:14;;;;;;;1.73;1.15;;;23.60;47.00;;;;;;5082435;28;20716;-38
2021/12/24 11:12:46;;;;;;;2.55;0.80;;;23.60;47.00;;;;;;5084749;28;20229;-38
2021/12/24 11:15:30;;;;;;;2.05;1.00;;;23.50;46.90;;;;;;5086584;28;20229;-37
2021/12/24 11:18:03;;;;;;;1.75;0.90;;;23.50;47.00;;;;;;5083584;28;20768;-38
2021/12/24 11:20:35;;;;;;;2.45;1.00;;;23.50;47.00;;;;;;5084661;28;20284;-38
2021/12/24 11:23:08;;;;;;;2.50;0.95;;;23.50;47.00;;;;;;5083001;28;20194;-38
2021/12/24 11:25:42;;;;;;;1.83;1.13;;;23.50;47.00;;;;;;5094195;28;20310;-37
2021/12/24 11:28:13;;;;;;;2.10;1.10;;;23.50;47.10;;;;;;5082901;28;20305;-37
2021/12/24 11:30:45;;;;;;;1.60;1.10;;;23.40;47.00;;;;;;5084539;28;20348;-46
2021/12/24 11:33:18;;;;;;;1.75;1.02;;;23.40;47.00;;;;;;5084594;28;20214;-46
2021/12/24 11:35:49;;;;;;;1.85;1.10;;;23.40;47.00;;;;;;5070688;28;20281;-46
2021/12/24 11:38:21;;;;;;;1.70;1.10;;;23.40;47.10;;;;;;5079011;28;20309;-46
2021/12/24 11:41:00;;;;;;;1.55;1.20;;;23.40;47.10;;;;;;5084071;28;20273;-46
2021/12/24 11:43:32;;;;;;;1.80;1.00;;;23.40;47.10;;;;;;5081834;28;20209;-46
2021/12/24 11:46:05;;;;;;;1.90;1.08;;;23.30;47.10;;;;;;5071567;28;20282;-46
2021/12/24 11:48:36;;;;;;;1.60;1.08;;;23.30;47.10;;;;;;5067435;28;20214;-46
2021/12/24 11:51:09;;;;;;;2.63;1.05;;;23.30;47.20;;;;;;5068118;28;20740;-40
2021/12/24 11:53:41;;;;;;;1.92;1.00;;;23.30;47.10;;;;;;5082876;28;20337;-37
2021/12/24 11:56:14;;;;;;;2.35;1.30;;;23.30;47.20;;;;;;5082882;28;20289;-37
2021/12/24 11:58:49;;;;;;;1.65;1.00;;;23.30;47.20;;;;;;5082373;28;20298;-38
2021/12/24 12:01:22;;;;;;;2.10;1.20;;;23.30;47.20;;;;;;5082335;28;20194;-38
2021/12/24 12:03:54;;;;;;;1.75;1.00;;;23.20;47.20;;;;;;5080217;28;20233;-37
2021/12/24 12:06:38;;;;;;;2.53;1.00;;;23.20;47.20;;;;;;5069991;28;20292;-38
2021/12/24 12:09:11;;;;;;;1.58;0.93;;;23.20;47.20;;;;;;5069661;28;20293;-37
2021/12/24 12:11:44;;;;;;;2.05;1.10;;;23.20;47.20;;;;;;5069488;28;20195;-37
2021/12/24 12:17:08;;;;;;;1.63;1.05;;;23.10;47.20;;;;;;5067609;28;20218;-50
2021/12/24 12:19:45;;;;;;;2.00;1.13;;;23.20;47.30;;;;;;5061831;28;20591;-47
2021/12/24 12:22:27;;;;;;;2.42;1.27;;;23.10;47.20;;;;;;5060578;28;20588;-50
2021/12/24 12:25:02;;;;;;;1.73;1.10;;;23.10;47.30;;;;;;5068229;28;20203;-43
2021/12/24 12:27:40;;;;;;;2.08;1.05;;;23.00;47.20;;;;;;5068837;28;20327;-47
2021/12/24 12:30:39;;;;;;;2.50;1.20;;;23.00;47.30;;;;;;5055336;28;20308;-47
2021/12/24 12:33:15;;;;;;;2.83;1.45;;;23.00;47.30;;;;;;5020439;28;20581;-46
2021/12/24 12:35:51;;;;;;;2.30;1.00;;;23.00;47.30;;;;;;5053062;28;20565;-53
2021/12/24 12:38:30;;;;;;;2.08;1.05;;;23.00;47.40;;;;;;5070015;28;20652;-50
2021/12/24 12:41:32;;;;;;;2.58;1.23;;;23.00;47.40;;;;;;5069285;28;20285;-52
2021/12/24 12:44:06;;;;;;;2.13;1.17;;;22.90;47.30;;;;;;5068894;28;20195;-45
2021/12/24 12:46:40;;;;;;;2.03;1.08;;;23.00;47.30;;;;;;5067978;28;20268;-45
2021/12/24 12:49:11;;;;;;;2.00;1.00;;;22.90;47.30;;;;;;5067338;28;20276;-44
2021/12/24 12:51:55;;;;;;;2.03;1.00;;;22.90;47.30;;;;;;5067787;28;20283;-46
2021/12/24 12:54:47;;;;;;;1.33;0.90;;;22.90;47.40;;;;;;5067565;28;20305;-44
2021/12/24 12:57:27;;;;;;;1.92;1.00;;;22.90;47.40;;;;;;5053697;28;20274;-47
2021/12/24 13:00:24;;;;;;;1.30;0.90;;;22.90;47.40;;;;;;5053889;28;20215;-56
2021/12/24 13:03:15;;;;;;;2.35;1.10;;;22.80;47.40;;;;;;5057676;28;20711;-39
2021/12/24 13:06:04;;;;;;;1.75;1.00;;;22.80;47.40;;;;;;5054781;28;20290;-40
2021/12/24 13:08:37;;;;;;;2.65;1.30;;;22.80;47.40;;;;;;5051660;28;20219;-42
2021/12/24 13:11:10;;;;;;;1.88;0.95;;;22.80;47.40;;;;;;5059005;28;20298;-41
2021/12/24 13:13:56;;;;;;;1.48;1.08;;;22.80;47.40;;;;;;5067332;28;20317;-41
2021/12/24 13:16:32;;;;;;;2.25;1.20;;;22.70;47.40;;;;;;5061392;28;20252;-52
2021/12/24 13:24:42;;;;;;;1.73;1.05;;;22.70;47.70;;;;;;5066660;28;20198;-58
2021/12/24 13:27:12;;;;;;;2.75;1.13;;;22.70;47.70;;;;;;5068419;28;20283;-58
2021/12/24 13:29:43;;;;;;;1.42;1.02;;;22.70;47.80;;;;;;5068268;28;20223;-58
2021/12/24 13:32:14;;;;;;;1.77;0.95;;;22.70;47.90;;;;;;5068136;28;20274;-53
2021/12/24 13:34:56;;;;;;;1.65;1.10;;;22.60;47.90;;;;;;5068804;28;20256;-48
2021/12/24 13:37:34;;;;;;;1.77;1.17;;;22.60;48.00;;;;;;5067615;28;20234;-51
2021/12/24 13:40:09;;;;;;;1.98;0.85;;;22.60;48.10;;;;;;5065704;28;20293;-47
2021/12/24 13:42:47;;;;;;;2.13;1.20;;;22.60;48.20;;;;;;5066774;28;20289;-44
2021/12/24 13:45:18;;;;;;;1.20;0.90;;;22.60;48.20;;;;;;5067151;28;20670;-47
2021/12/24 13:48:00;;;;;;;2.20;1.10;;;22.60;48.30;;;;;;5067045;28;20231;-49
2021/12/24 13:56:23;;;;;;;1.50;1.08;;;22.50;48.40;;;;;;5066238;28;20202;-47
2021/12/24 13:58:54;;;;;;;1.40;0.95;;;22.50;48.40;;;;;;5068505;28;20645;-54
2021/12/24 14:01:26;;;;;;;3.22;1.00;;;22.50;48.50;;;;;;5066103;28;20286;-58
2021/12/24 14:03:57;;;;;;;1.88;0.95;;;22.50;48.50;;;;;;5066732;28;20314;-45
2021/12/24 14:06:39;;;;;;;1.48;1.10;;;22.40;48.60;;;;;;5061394;28;20278;-50
2021/12/24 14:09:13;;;;;;;1.85;1.20;;;22.40;48.70;;;;;;5054812;28;20307;-40
2021/12/24 14:11:44;;;;;;;2.10;1.08;;;22.40;48.70;;;;;;5068437;28;20235;-43
2021/12/24 14:14:20;;;;;;;1.52;1.17;;;22.40;48.80;;;;;;5068568;28;20254;-39
2021/12/24 14:17:08;;;;;;;2.17;1.27;;;22.40;48.80;;;;;;5056558;28;20267;-44
2021/12/24 14:19:49;;;;;;;1.92;1.10;;;22.40;48.90;;;;;;5069272;28;20221;-38
2021/12/24 14:22:23;;;;;;;1.60;0.82;;;22.40;48.90;;;;;;5053026;28;20208;-47
2021/12/24 14:24:56;;;;;;;1.75;1.05;;;22.40;48.90;;;;;;5065905;28;20199;-42
2021/12/24 14:27:27;;;;;;;1.33;0.93;;;22.40;49.10;;;;;;5066004;28;20722;-40
2021/12/24 14:29:59;;;;;;;2.03;1.25;;;22.30;49.10;;;;;;5067706;28;20229;-44
2021/12/24 14:32:34;;;;;;;2.70;1.10;;;22.30;49.10;;;;;;5066381;28;20283;-40
2021/12/24 14:35:16;;;;;;;1.65;1.20;;;22.30;49.20;;;;;;5053056;28;20330;-41
2021/12/24 14:38:01;;;;;;;2.08;1.10;;;22.30;49.20;;;;;;5052956;28;20191;-42
2021/12/24 14:40:33;;;;;;;1.45;1.00;;;22.30;49.20;;;;;;5057029;28;20658;-47
2021/12/24 14:43:13;;;;;;;1.70;1.10;;;22.30;49.30;;;;;;5068738;28;20281;-39